createdAt,value
2022-11-09T00:00:44.739Z,37.85
2022-11-09T00:01:44.725Z,36.72
2022-11-09T00:02:44.713Z,37.91
2022-11-09T00:03:44.706Z,36.77
2022-11-09T00:04:44.687Z,37.91
2022-11-09T00:05:44.669Z,37.91
2022-11-09T00:06:44.744Z,37.91
2022-11-09T00:07:44.657Z,37.91
2022-11-09T00:08:44.641Z,37.75
2022-11-09T00:09:44.686Z,37.91
2022-11-09T00:10:44.615Z,37.91
2022-11-09T00:11:44.594Z,37.91
2022-11-09T00:12:44.611Z,36.61
2022-11-09T00:13:44.575Z,36.72
2022-11-09T00:14:44.558Z,36.72
2022-11-09T00:15:44.556Z,37.80
2022-11-09T00:16:44.535Z,36.77
2022-11-09T00:17:44.542Z,37.96
2022-11-09T00:18:44.517Z,37.80
2022-11-09T00:19:44.497Z,36.72
2022-11-09T00:20:47.586Z,37.85
2022-11-09T00:21:44.472Z,37.80
2022-11-09T00:22:44.460Z,36.72
2022-11-09T00:23:44.443Z,36.61
2022-11-09T00:24:44.435Z,36.72
2022-11-09T00:25:44.421Z,36.67
2022-11-09T00:26:44.405Z,36.67
2022-11-09T00:27:44.398Z,37.80
2022-11-09T00:28:44.407Z,36.61
2022-11-09T00:29:44.365Z,36.77
2022-11-09T00:30:44.356Z,37.80
2022-11-09T00:31:44.348Z,36.61
2022-11-09T00:32:44.333Z,36.72
2022-11-09T00:33:44.325Z,36.67
2022-11-09T00:34:44.306Z,36.67
2022-11-09T00:35:44.292Z,37.80
2022-11-09T00:36:44.281Z,36.72
2022-11-09T00:37:44.349Z,37.91
2022-11-09T00:38:44.253Z,36.77
2022-11-09T00:39:44.241Z,37.85
2022-11-09T00:40:44.228Z,37.91
2022-11-09T00:41:44.221Z,37.75
2022-11-09T00:42:44.207Z,36.77
2022-11-09T00:43:44.188Z,37.91
2022-11-09T00:44:44.218Z,36.83
2022-11-09T00:45:44.163Z,37.91
2022-11-09T00:46:44.152Z,36.67
2022-11-09T00:47:44.143Z,36.83
2022-11-09T00:48:44.128Z,36.72
2022-11-09T00:49:44.112Z,36.67
2022-11-09T00:50:44.099Z,37.91
2022-11-09T00:51:44.090Z,37.75
2022-11-09T00:52:44.084Z,36.72
2022-11-09T00:53:44.065Z,36.67
2022-11-09T00:54:44.049Z,36.61
2022-11-09T00:55:44.037Z,37.96
2022-11-09T00:56:44.040Z,37.80
2022-11-09T00:57:44.013Z,36.61
2022-11-09T00:58:43.999Z,37.85
2022-11-09T00:59:43.984Z,37.75
2022-11-09T01:00:44.122Z,36.77
2022-11-09T01:01:44.002Z,37.96
2022-11-09T01:02:43.948Z,36.67
2022-11-09T01:03:43.940Z,36.67
2022-11-09T01:04:43.919Z,37.96
2022-11-09T01:05:43.913Z,37.91
2022-11-09T01:06:43.968Z,36.72
2022-11-09T01:07:43.881Z,37.75
2022-11-09T01:08:43.867Z,36.67
2022-11-09T01:09:43.855Z,37.91
2022-11-09T01:10:43.839Z,37.91
2022-11-09T01:11:43.827Z,36.67
2022-11-09T01:12:43.816Z,37.85
2022-11-09T01:13:43.802Z,36.56
2022-11-09T01:14:43.793Z,37.85
2022-11-09T01:15:43.784Z,36.77
2022-11-09T01:16:43.788Z,37.91
2022-11-09T01:17:43.750Z,36.61
2022-11-09T01:18:43.740Z,37.96
2022-11-09T01:19:43.731Z,36.72
2022-11-09T01:20:43.715Z,37.96
2022-11-09T01:21:43.701Z,36.61
2022-11-09T01:22:43.685Z,37.75
2022-11-09T01:23:43.688Z,36.77
2022-11-09T01:24:43.666Z,36.67
2022-11-09T01:25:43.658Z,37.85
2022-11-09T01:26:43.644Z,36.61
2022-11-09T01:27:43.627Z,37.80
2022-11-09T01:28:43.616Z,36.72
2022-11-09T01:29:43.603Z,37.85
2022-11-09T01:30:43.587Z,37.85
2022-11-09T01:31:43.571Z,36.72
2022-11-09T01:32:43.595Z,36.56
2022-11-09T01:33:43.554Z,37.96
2022-11-09T01:34:43.536Z,36.72
2022-11-09T01:35:43.523Z,36.67
2022-11-09T01:36:43.511Z,36.67
2022-11-09T01:37:43.500Z,37.91
2022-11-09T01:38:43.488Z,37.96
2022-11-09T01:39:43.475Z,36.67
2022-11-09T01:40:43.459Z,36.61
2022-11-09T01:41:43.455Z,36.67
2022-11-09T01:42:43.439Z,36.72
2022-11-09T01:43:43.424Z,36.61
2022-11-09T01:44:43.410Z,37.75
2022-11-09T01:45:43.398Z,36.72
2022-11-09T01:46:43.384Z,36.67
2022-11-09T01:47:43.371Z,36.61
2022-11-09T01:48:43.383Z,37.96
2022-11-09T01:49:43.350Z,37.85
2022-11-09T01:50:43.332Z,36.72
2022-11-09T01:51:43.320Z,37.91
2022-11-09T01:52:43.307Z,36.67
2022-11-09T01:53:43.291Z,37.85
2022-11-09T01:54:43.282Z,37.85
2022-11-09T01:55:43.276Z,37.85
2022-11-09T01:56:43.265Z,38.02
2022-11-09T01:57:43.244Z,37.91
2022-11-09T01:58:43.233Z,37.96
2022-11-09T01:59:43.216Z,36.67
2022-11-09T02:00:43.206Z,36.61
2022-11-09T02:01:43.272Z,37.80
2022-11-09T02:02:43.181Z,36.83
2022-11-09T02:03:43.167Z,36.67
2022-11-09T02:04:43.178Z,36.67
2022-11-09T02:05:43.143Z,37.91
2022-11-09T02:06:43.335Z,36.67
2022-11-09T02:07:43.115Z,37.96
2022-11-09T02:08:43.108Z,37.85
2022-11-09T02:09:43.094Z,37.91
2022-11-09T02:10:43.085Z,37.80
2022-11-09T02:11:43.064Z,37.96
2022-11-09T02:12:43.055Z,36.61
2022-11-09T02:13:43.046Z,36.67
2022-11-09T02:14:43.026Z,37.80
2022-11-09T02:15:45.937Z,36.72
2022-11-09T02:16:42.997Z,37.91
2022-11-09T02:17:42.988Z,37.85
2022-11-09T02:18:42.980Z,36.67
2022-11-09T02:19:42.968Z,37.75
2022-11-09T02:20:42.972Z,36.67
2022-11-09T02:21:42.941Z,36.72
2022-11-09T02:22:42.926Z,37.91
2022-11-09T02:23:42.914Z,37.85
2022-11-09T02:24:42.900Z,36.56
2022-11-09T02:25:42.888Z,36.67
2022-11-09T02:26:42.875Z,36.83
2022-11-09T02:27:42.864Z,36.67
2022-11-09T02:28:42.848Z,36.67
2022-11-09T02:29:42.835Z,37.80
2022-11-09T02:30:42.827Z,36.77
2022-11-09T02:31:42.809Z,36.67
2022-11-09T02:32:42.809Z,36.72
2022-11-09T02:33:42.784Z,36.83
2022-11-09T02:34:42.772Z,37.80
2022-11-09T02:35:42.757Z,37.96
2022-11-09T02:36:42.772Z,36.72
2022-11-09T02:37:42.739Z,36.72
2022-11-09T02:38:42.722Z,36.72
2022-11-09T02:39:42.707Z,37.85
2022-11-09T02:40:42.693Z,37.85
2022-11-09T02:41:42.684Z,37.80
2022-11-09T02:42:42.671Z,38.02
2022-11-09T02:43:42.662Z,36.67
2022-11-09T02:44:42.655Z,36.72
2022-11-09T02:45:42.634Z,37.85
2022-11-09T02:46:42.619Z,36.67
2022-11-09T02:47:42.607Z,37.80
2022-11-09T02:48:42.597Z,37.85
2022-11-09T02:49:42.585Z,36.72
2022-11-09T02:50:42.572Z,36.61
2022-11-09T02:51:42.557Z,36.67
2022-11-09T02:52:42.569Z,36.72
2022-11-09T02:53:42.528Z,36.61
2022-11-09T02:54:42.519Z,36.61
2022-11-09T02:55:42.503Z,37.91
2022-11-09T02:56:42.497Z,36.67
2022-11-09T02:57:42.478Z,37.85
2022-11-09T02:58:42.466Z,37.80
2022-11-09T02:59:42.452Z,36.77
2022-11-09T03:00:42.551Z,37.80
2022-11-09T03:01:42.513Z,36.61
2022-11-09T03:02:42.415Z,37.91
2022-11-09T03:03:42.411Z,37.80
2022-11-09T03:04:42.393Z,37.80
2022-11-09T03:05:42.379Z,36.67
2022-11-09T03:06:42.451Z,36.72
2022-11-09T03:07:42.353Z,36.72
2022-11-09T03:08:42.376Z,36.67
2022-11-09T03:09:42.329Z,37.80
2022-11-09T03:10:42.318Z,36.67
2022-11-09T03:11:42.301Z,37.75
2022-11-09T03:12:42.295Z,36.67
2022-11-09T03:13:42.278Z,37.85
2022-11-09T03:14:42.267Z,36.72
2022-11-09T03:15:42.251Z,36.72
2022-11-09T03:16:46.469Z,36.67
2022-11-09T03:17:43.259Z,36.77
2022-11-09T03:18:42.213Z,37.91
2022-11-09T03:19:42.202Z,36.72
2022-11-09T03:20:42.191Z,37.85
2022-11-09T03:21:42.175Z,37.91
2022-11-09T03:22:42.161Z,36.72
2022-11-09T03:23:42.152Z,36.77
2022-11-09T03:24:42.158Z,36.61
2022-11-09T03:25:42.126Z,36.72
2022-11-09T03:26:42.114Z,37.85
2022-11-09T03:27:42.105Z,36.61
2022-11-09T03:28:42.085Z,36.67
2022-11-09T03:29:42.077Z,36.67
2022-11-09T03:30:42.062Z,36.67
2022-11-09T03:31:42.048Z,36.67
2022-11-09T03:32:44.687Z,36.61
2022-11-09T03:33:42.020Z,37.75
2022-11-09T03:34:42.012Z,37.85
2022-11-09T03:35:41.994Z,36.67
2022-11-09T03:36:41.994Z,36.72
2022-11-09T03:37:42.048Z,36.67
2022-11-09T03:38:41.964Z,36.77
2022-11-09T03:39:41.946Z,36.67
2022-11-09T03:40:41.956Z,37.80
2022-11-09T03:41:41.932Z,36.72
2022-11-09T03:42:41.908Z,36.61
2022-11-09T03:43:41.894Z,36.61
2022-11-09T03:44:41.902Z,36.72
2022-11-09T03:45:41.872Z,36.72
2022-11-09T03:46:41.863Z,36.67
2022-11-09T03:47:41.843Z,36.61
2022-11-09T03:48:41.835Z,36.67
2022-11-09T03:49:41.826Z,37.85
2022-11-09T03:50:41.808Z,36.67
2022-11-09T03:51:41.797Z,36.67
2022-11-09T03:52:41.782Z,36.67
2022-11-09T03:53:41.770Z,36.67
2022-11-09T03:54:41.756Z,37.85
2022-11-09T03:55:41.748Z,37.80
2022-11-09T03:56:41.874Z,37.80
2022-11-09T03:57:41.717Z,36.77
2022-11-09T03:58:41.707Z,37.85
2022-11-09T03:59:41.691Z,37.91
2022-11-09T04:00:41.677Z,36.77
2022-11-09T04:01:41.771Z,36.72
2022-11-09T04:02:41.657Z,36.77
2022-11-09T04:03:41.642Z,37.85
2022-11-09T04:04:41.630Z,36.77
2022-11-09T04:05:41.615Z,37.96
2022-11-09T04:06:41.697Z,36.67
2022-11-09T04:07:41.593Z,36.67
2022-11-09T04:08:44.656Z,36.67
2022-11-09T04:09:41.567Z,37.91
2022-11-09T04:10:41.551Z,36.77
2022-11-09T04:11:41.542Z,36.67
2022-11-09T04:12:41.555Z,37.85
2022-11-09T04:13:41.514Z,36.72
2022-11-09T04:14:41.503Z,37.91
2022-11-09T04:15:41.492Z,36.61
2022-11-09T04:16:41.478Z,37.80
2022-11-09T04:17:41.465Z,36.67
2022-11-09T04:18:41.453Z,36.72
2022-11-09T04:19:41.445Z,37.80
2022-11-09T04:20:41.427Z,36.72
2022-11-09T04:21:41.419Z,37.96
2022-11-09T04:22:41.399Z,37.91
2022-11-09T04:23:41.390Z,37.96
2022-11-09T04:24:41.375Z,36.67
2022-11-09T04:25:41.369Z,36.61
2022-11-09T04:26:41.352Z,37.85
2022-11-09T04:27:41.341Z,36.72
2022-11-09T04:28:41.350Z,36.72
2022-11-09T04:29:41.307Z,36.72
2022-11-09T04:30:41.303Z,36.67
2022-11-09T04:31:41.284Z,36.67
2022-11-09T04:32:41.285Z,36.61
2022-11-09T04:33:41.258Z,36.61
2022-11-09T04:34:41.253Z,36.61
2022-11-09T04:35:41.238Z,36.61
2022-11-09T04:36:41.222Z,37.91
2022-11-09T04:37:41.209Z,36.72
2022-11-09T04:38:41.198Z,36.67
2022-11-09T04:39:41.186Z,37.91
2022-11-09T04:40:41.171Z,36.77
2022-11-09T04:41:41.183Z,36.67
2022-11-09T04:42:41.145Z,36.67
2022-11-09T04:43:41.137Z,37.85
2022-11-09T04:44:41.164Z,36.77
2022-11-09T04:45:41.113Z,36.72
2022-11-09T04:46:41.100Z,37.85
2022-11-09T04:47:41.087Z,37.85
2022-11-09T04:48:41.077Z,36.67
2022-11-09T04:49:41.063Z,37.91
2022-11-09T04:50:41.061Z,36.67
2022-11-09T04:51:41.033Z,37.91
2022-11-09T04:52:41.023Z,37.37
2022-11-09T04:53:41.010Z,36.77
2022-11-09T04:54:40.991Z,36.61
2022-11-09T04:55:40.979Z,36.61
2022-11-09T04:56:40.972Z,37.91
2022-11-09T04:57:40.956Z,36.56
2022-11-09T04:58:40.946Z,37.85
2022-11-09T04:59:40.926Z,36.61
2022-11-09T05:00:40.946Z,37.85
2022-11-09T05:01:40.901Z,36.72
2022-11-09T05:02:40.891Z,36.67
2022-11-09T05:03:40.952Z,36.67
2022-11-09T05:04:40.863Z,36.67
2022-11-09T05:05:47.064Z,36.61
2022-11-09T05:06:41.945Z,36.72
2022-11-09T05:07:40.826Z,36.56
2022-11-09T05:08:40.813Z,36.72
2022-11-09T05:09:40.804Z,36.67
2022-11-09T05:10:40.794Z,36.77
2022-11-09T05:11:40.775Z,36.67
2022-11-09T05:12:45.651Z,36.72
2022-11-09T05:13:40.751Z,37.91
2022-11-09T05:14:40.748Z,36.61
2022-11-09T05:15:40.723Z,36.72
2022-11-09T05:16:40.837Z,37.91
2022-11-09T05:17:40.700Z,36.72
2022-11-09T05:18:40.687Z,36.77
2022-11-09T05:19:40.673Z,37.91
2022-11-09T05:20:40.663Z,37.80
2022-11-09T05:21:40.647Z,36.72
2022-11-09T05:22:40.634Z,36.67
2022-11-09T05:23:40.620Z,36.61
2022-11-09T05:24:40.606Z,36.61
2022-11-09T05:25:40.596Z,36.67
2022-11-09T05:26:40.587Z,37.85
2022-11-09T05:27:40.568Z,36.67
2022-11-09T05:28:40.559Z,36.61
2022-11-09T05:29:40.546Z,37.91
2022-11-09T05:30:40.547Z,36.61
2022-11-09T05:31:40.519Z,37.80
2022-11-09T05:32:40.529Z,36.77
2022-11-09T05:33:40.501Z,36.67
2022-11-09T05:34:40.478Z,36.77
2022-11-09T05:35:40.481Z,36.67
2022-11-09T05:36:40.454Z,36.67
2022-11-09T05:37:40.449Z,36.61
2022-11-09T05:38:40.428Z,36.72
2022-11-09T05:39:40.415Z,36.67
2022-11-09T05:40:40.408Z,36.67
2022-11-09T05:41:40.389Z,36.72
2022-11-09T05:42:40.378Z,36.72
2022-11-09T05:43:40.363Z,36.67
2022-11-09T05:44:40.350Z,36.77
2022-11-09T05:45:43.357Z,36.72
2022-11-09T05:46:40.326Z,36.72
2022-11-09T05:47:40.311Z,36.67
2022-11-09T05:48:40.379Z,36.61
2022-11-09T05:49:40.288Z,36.67
2022-11-09T05:50:40.273Z,36.61
2022-11-09T05:51:40.266Z,36.61
2022-11-09T05:52:40.245Z,37.91
2022-11-09T05:53:45.904Z,36.67
2022-11-09T05:54:41.253Z,36.61
2022-11-09T05:55:40.215Z,36.61
2022-11-09T05:56:40.199Z,36.67
2022-11-09T05:57:40.179Z,36.67
2022-11-09T05:58:40.170Z,36.67
2022-11-09T05:59:40.159Z,36.67
2022-11-09T06:00:40.146Z,37.85
2022-11-09T06:01:40.206Z,36.61
2022-11-09T06:02:40.119Z,36.72
2022-11-09T06:03:40.109Z,36.72
2022-11-09T06:04:40.124Z,36.61
2022-11-09T06:05:40.079Z,36.67
2022-11-09T06:06:40.148Z,36.56
2022-11-09T06:07:40.057Z,36.72
2022-11-09T06:08:40.047Z,36.56
2022-11-09T06:09:40.031Z,36.56
2022-11-09T06:10:40.017Z,36.72
2022-11-09T06:11:40.004Z,36.56
2022-11-09T06:12:39.993Z,36.61
2022-11-09T06:13:39.977Z,36.67
2022-11-09T06:14:39.965Z,36.56
2022-11-09T06:15:39.957Z,36.67
2022-11-09T06:16:39.946Z,36.77
2022-11-09T06:17:39.935Z,36.67
2022-11-09T06:18:39.916Z,36.72
2022-11-09T06:19:39.907Z,36.56
2022-11-09T06:20:39.912Z,37.91
2022-11-09T06:21:39.881Z,36.67
2022-11-09T06:22:39.865Z,36.72
2022-11-09T06:23:39.853Z,36.67
2022-11-09T06:24:39.846Z,37.80
2022-11-09T06:25:39.833Z,36.61
2022-11-09T06:26:39.815Z,36.72
2022-11-09T06:27:39.797Z,36.72
2022-11-09T06:28:39.788Z,36.77
2022-11-09T06:29:39.782Z,36.61
2022-11-09T06:30:39.764Z,36.61
2022-11-09T06:31:39.752Z,36.67
2022-11-09T06:32:39.738Z,37.80
2022-11-09T06:33:39.723Z,36.83
2022-11-09T06:34:39.716Z,36.67
2022-11-09T06:35:39.701Z,37.91
2022-11-09T06:36:39.708Z,37.91
2022-11-09T06:37:39.678Z,36.72
2022-11-09T06:38:39.658Z,36.67
2022-11-09T06:39:39.651Z,37.85
2022-11-09T06:40:39.637Z,37.85
2022-11-09T06:41:43.295Z,37.96
2022-11-09T06:42:40.750Z,36.67
2022-11-09T06:43:39.595Z,36.72
2022-11-09T06:44:39.597Z,37.85
2022-11-09T06:45:39.573Z,36.61
2022-11-09T06:46:39.560Z,36.67
2022-11-09T06:47:39.547Z,36.67
2022-11-09T06:48:39.546Z,36.67
2022-11-09T06:49:39.520Z,37.85
2022-11-09T06:50:39.508Z,36.72
2022-11-09T06:51:39.498Z,36.67
2022-11-09T06:52:39.516Z,36.67
2022-11-09T06:53:39.469Z,36.72
2022-11-09T06:54:39.464Z,36.72
2022-11-09T06:55:39.439Z,36.61
2022-11-09T06:56:39.429Z,36.72
2022-11-09T06:57:39.419Z,36.72
2022-11-09T06:58:39.407Z,36.67
2022-11-09T06:59:39.395Z,37.85
2022-11-09T07:00:39.379Z,36.67
2022-11-09T07:01:39.447Z,36.61
2022-11-09T07:02:39.358Z,37.75
2022-11-09T07:03:39.340Z,36.67
2022-11-09T07:04:39.334Z,36.67
2022-11-09T07:05:39.315Z,37.91
2022-11-09T07:06:39.385Z,37.91
2022-11-09T07:07:39.298Z,37.80
2022-11-09T07:08:39.307Z,36.67
2022-11-09T07:09:39.264Z,37.85
2022-11-09T07:10:39.257Z,36.72
2022-11-09T07:11:39.240Z,37.85
2022-11-09T07:12:39.230Z,37.91
2022-11-09T07:13:39.216Z,36.67
2022-11-09T07:14:39.201Z,36.67
2022-11-09T07:15:39.194Z,36.61
2022-11-09T07:16:39.175Z,36.67
2022-11-09T07:17:39.171Z,36.67
2022-11-09T07:18:39.158Z,37.85
2022-11-09T07:19:39.140Z,36.67
2022-11-09T07:20:39.124Z,37.85
2022-11-09T07:21:39.114Z,37.96
2022-11-09T07:22:39.097Z,36.77
2022-11-09T07:23:39.093Z,36.67
2022-11-09T07:24:39.089Z,37.85
2022-11-09T07:25:39.064Z,37.91
2022-11-09T07:26:39.051Z,36.61
2022-11-09T07:27:39.035Z,37.91
2022-11-09T07:28:39.020Z,37.80
2022-11-09T07:29:39.013Z,37.91
2022-11-09T07:30:39.000Z,37.91
2022-11-09T07:31:38.986Z,36.67
2022-11-09T07:33:08.508Z,37.85
2022-11-09T07:33:39.989Z,37.80
2022-11-09T07:34:38.947Z,36.72
2022-11-09T07:35:38.936Z,36.72
2022-11-09T07:36:38.919Z,37.91
2022-11-09T07:37:38.913Z,36.61
2022-11-09T07:38:38.902Z,36.72
2022-11-09T07:39:38.885Z,37.85
2022-11-09T07:40:38.905Z,37.85
2022-11-09T07:41:38.861Z,37.85
2022-11-09T07:42:38.847Z,37.91
2022-11-09T07:43:38.832Z,37.91
2022-11-09T07:44:38.818Z,36.61
2022-11-09T07:45:38.830Z,36.61
2022-11-09T07:46:38.799Z,36.67
2022-11-09T07:47:38.784Z,36.61
2022-11-09T07:48:38.769Z,37.85
2022-11-09T07:49:38.757Z,37.85
2022-11-09T07:50:38.748Z,37.85
2022-11-09T07:51:38.728Z,37.80
2022-11-09T07:52:38.721Z,37.85
2022-11-09T07:53:38.731Z,36.67
2022-11-09T07:54:38.687Z,36.67
2022-11-09T07:55:38.684Z,37.91
2022-11-09T07:56:38.693Z,37.85
2022-11-09T07:57:38.651Z,36.72
2022-11-09T07:58:38.644Z,37.91
2022-11-09T07:59:38.638Z,36.61
2022-11-09T08:00:38.611Z,37.85
2022-11-09T08:01:38.645Z,36.67
2022-11-09T08:02:38.584Z,37.85
2022-11-09T08:03:38.580Z,37.96
2022-11-09T08:04:38.582Z,36.72
2022-11-09T08:05:38.549Z,36.72
2022-11-09T08:06:38.573Z,36.72
2022-11-09T08:07:38.527Z,37.96
2022-11-09T08:08:38.509Z,37.91
2022-11-09T08:09:38.503Z,37.85
2022-11-09T08:10:38.481Z,37.91
2022-11-09T08:11:38.469Z,36.67
2022-11-09T08:12:38.498Z,37.91
2022-11-09T08:13:38.447Z,37.91
2022-11-09T08:14:38.436Z,37.85
2022-11-09T08:15:38.448Z,37.91
2022-11-09T08:16:38.415Z,37.96
2022-11-09T08:17:38.400Z,37.85
2022-11-09T08:18:38.384Z,37.96
2022-11-09T08:19:38.371Z,37.85
2022-11-09T08:20:38.356Z,37.85
2022-11-09T08:21:38.359Z,37.85
2022-11-09T08:22:38.333Z,37.85
2022-11-09T08:23:38.327Z,36.61
2022-11-09T08:24:38.305Z,37.75
2022-11-09T08:25:38.285Z,37.85
2022-11-09T08:26:38.287Z,37.85
2022-11-09T08:27:38.271Z,37.85
2022-11-09T08:28:38.291Z,37.91
2022-11-09T08:29:38.243Z,37.91
2022-11-09T08:30:38.225Z,36.67
2022-11-09T08:31:38.214Z,37.91
2022-11-09T08:32:38.206Z,37.96
2022-11-09T08:33:38.187Z,37.96
2022-11-09T08:34:38.180Z,37.80
2022-11-09T08:35:38.162Z,37.96
2022-11-09T08:36:38.151Z,37.91
2022-11-09T08:37:38.136Z,37.85
2022-11-09T08:38:38.132Z,37.85
2022-11-09T08:39:38.106Z,37.91
2022-11-09T08:40:38.117Z,37.91
2022-11-09T08:41:38.092Z,37.80
2022-11-09T08:42:38.072Z,37.85
2022-11-09T08:43:38.156Z,37.85
2022-11-09T08:44:38.071Z,37.91
2022-11-09T08:45:38.042Z,37.80
2022-11-09T08:46:41.265Z,37.91
2022-11-09T08:47:38.003Z,37.91
2022-11-09T08:48:37.999Z,37.85
2022-11-09T08:49:37.978Z,37.85
2022-11-09T08:50:37.985Z,37.85
2022-11-09T08:51:37.960Z,37.96
2022-11-09T08:52:37.947Z,37.91
2022-11-09T08:53:37.936Z,37.75
2022-11-09T08:54:37.923Z,37.80
2022-11-09T08:55:37.902Z,37.91
2022-11-09T08:56:37.888Z,37.85
2022-11-09T08:57:37.895Z,37.85
2022-11-09T08:58:37.877Z,37.85
2022-11-09T08:59:37.862Z,37.85
2022-11-09T09:00:37.864Z,37.91
2022-11-09T09:01:37.846Z,37.85
2022-11-09T09:02:37.818Z,37.96
2022-11-09T09:03:37.802Z,38.02
2022-11-09T09:04:37.798Z,37.85
2022-11-09T09:05:37.778Z,37.91
2022-11-09T09:06:37.831Z,37.91
2022-11-09T09:07:37.754Z,37.96
2022-11-09T09:08:37.741Z,37.91
2022-11-09T09:09:37.744Z,37.91
2022-11-09T09:10:37.719Z,37.85
2022-11-09T09:11:37.702Z,37.91
2022-11-09T09:12:37.693Z,37.75
2022-11-09T09:13:42.061Z,37.91
2022-11-09T09:14:37.675Z,37.85
2022-11-09T09:15:37.647Z,37.75
2022-11-09T09:16:37.664Z,37.80
2022-11-09T09:17:37.626Z,38.02
2022-11-09T09:18:37.623Z,37.80
2022-11-09T09:19:37.596Z,37.85
2022-11-09T09:20:37.587Z,37.80
2022-11-09T09:21:37.580Z,37.91
2022-11-09T09:22:37.561Z,37.91
2022-11-09T09:23:37.551Z,37.91
2022-11-09T09:24:37.523Z,37.85
2022-11-09T09:25:37.514Z,37.91
2022-11-09T09:26:37.517Z,37.85
2022-11-09T09:27:37.493Z,37.85
2022-11-09T09:28:37.486Z,37.85
2022-11-09T09:29:37.465Z,37.91
2022-11-09T09:30:37.466Z,37.91
2022-11-09T09:31:37.442Z,37.75
2022-11-09T09:32:37.452Z,37.85
2022-11-09T09:33:37.432Z,37.85
2022-11-09T09:34:37.402Z,37.85
2022-11-09T09:35:37.395Z,37.85
2022-11-09T09:36:37.384Z,37.96
2022-11-09T09:37:37.366Z,37.91
2022-11-09T09:38:37.355Z,38.02
2022-11-09T09:39:37.374Z,37.91
2022-11-09T09:40:37.327Z,37.85
2022-11-09T09:41:37.311Z,37.85
2022-11-09T09:42:37.302Z,37.91
2022-11-09T09:43:42.785Z,37.96
2022-11-09T09:44:38.305Z,37.85
2022-11-09T09:45:37.263Z,37.85
2022-11-09T09:46:37.250Z,39.04
2022-11-09T09:47:37.236Z,37.85
2022-11-09T09:48:37.251Z,37.85
2022-11-09T09:49:37.281Z,37.85
2022-11-09T09:50:37.198Z,37.85
2022-11-09T09:51:37.195Z,37.91
2022-11-09T09:52:37.177Z,37.91
2022-11-09T09:53:37.165Z,37.91
2022-11-09T09:54:37.144Z,37.91
2022-11-09T09:55:37.138Z,37.85
2022-11-09T09:56:37.122Z,37.91
2022-11-09T09:57:41.708Z,37.85
2022-11-09T09:58:37.092Z,37.85
2022-11-09T09:59:37.078Z,37.80
2022-11-09T10:00:37.071Z,37.96
2022-11-09T10:01:37.062Z,39.04
2022-11-09T10:02:37.039Z,37.91
2022-11-09T10:03:37.033Z,37.75
2022-11-09T10:04:37.141Z,37.80
2022-11-09T10:05:37.035Z,37.96
2022-11-09T10:06:37.122Z,39.04
2022-11-09T10:07:36.978Z,37.91
2022-11-09T10:08:36.977Z,37.80
2022-11-09T10:09:36.953Z,37.85
2022-11-09T10:10:36.941Z,37.85
2022-11-09T10:11:36.934Z,37.85
2022-11-09T10:12:36.912Z,39.15
2022-11-09T10:13:36.896Z,37.80
2022-11-09T10:14:36.887Z,37.80
2022-11-09T10:15:36.875Z,38.99
2022-11-09T10:16:36.867Z,39.04
2022-11-09T10:17:36.848Z,37.96
2022-11-09T10:18:36.840Z,37.85
2022-11-09T10:19:36.826Z,38.99
2022-11-09T10:20:36.837Z,39.04
2022-11-09T10:21:36.796Z,37.91
2022-11-09T10:22:36.783Z,39.04
2022-11-09T10:23:36.773Z,39.10
2022-11-09T10:24:36.911Z,39.10
2022-11-09T10:26:02.439Z,39.04
2022-11-09T10:26:37.773Z,39.04
2022-11-09T10:27:36.718Z,38.99
2022-11-09T10:28:54.663Z,38.39
2022-11-09T10:29:37.724Z,39.04
2022-11-09T10:30:36.684Z,37.91
2022-11-09T10:31:36.664Z,39.15
2022-11-09T10:32:36.657Z,39.15
2022-11-09T10:33:36.644Z,39.10
2022-11-09T10:34:36.635Z,39.15
2022-11-09T10:35:36.621Z,39.10
2022-11-09T10:36:36.632Z,39.10
2022-11-09T10:37:36.579Z,39.04
2022-11-09T10:38:36.579Z,38.99
2022-11-09T10:39:36.560Z,39.04
2022-11-09T10:40:36.583Z,39.10
2022-11-09T10:41:36.538Z,39.10
2022-11-09T10:42:36.529Z,39.04
2022-11-09T10:43:36.515Z,38.99
2022-11-09T10:44:36.508Z,38.99
2022-11-09T10:45:36.480Z,39.04
2022-11-09T10:46:36.485Z,39.04
2022-11-09T10:47:36.472Z,39.04
2022-11-09T10:48:36.445Z,38.99
2022-11-09T10:49:36.437Z,39.10
2022-11-09T10:50:36.439Z,39.04
2022-11-09T10:51:36.423Z,38.99
2022-11-09T10:52:36.426Z,39.04
2022-11-09T10:53:36.382Z,39.04
2022-11-09T10:54:36.369Z,38.99
2022-11-09T10:55:36.369Z,39.04
2022-11-09T10:56:47.270Z,38.99
2022-11-09T10:57:37.369Z,39.10
2022-11-09T10:58:36.328Z,39.15
2022-11-09T10:59:36.316Z,39.04
2022-11-09T11:00:36.294Z,39.15
2022-11-09T11:01:36.340Z,38.99
2022-11-09T11:02:36.270Z,38.99
2022-11-09T11:03:36.262Z,39.10
2022-11-09T11:04:36.244Z,39.04
2022-11-09T11:05:36.235Z,39.04
2022-11-09T11:06:36.275Z,39.04
2022-11-09T11:07:36.205Z,38.99
2022-11-09T11:08:36.258Z,39.04
2022-11-09T11:09:36.186Z,39.10
2022-11-09T11:10:36.172Z,39.10
2022-11-09T11:11:37.251Z,39.04
2022-11-09T11:12:36.146Z,39.10
2022-11-09T11:13:36.124Z,39.10
2022-11-09T11:14:36.120Z,39.04
2022-11-09T11:15:36.111Z,39.10
2022-11-09T11:16:36.095Z,39.04
2022-11-09T11:17:36.080Z,38.99
2022-11-09T11:18:36.067Z,39.15
2022-11-09T11:19:36.070Z,39.04
2022-11-09T11:20:36.043Z,39.04
2022-11-09T11:21:36.033Z,39.04
2022-11-09T11:22:36.032Z,39.04
2022-11-09T11:23:36.010Z,39.04
2022-11-09T11:24:36.018Z,38.99
2022-11-09T11:25:35.981Z,39.10
2022-11-09T11:26:35.964Z,39.10
2022-11-09T11:27:35.955Z,39.10
2022-11-09T11:28:35.940Z,39.10
2022-11-09T11:29:35.943Z,38.99
2022-11-09T11:30:35.917Z,40.23
2022-11-09T11:31:35.900Z,38.99
2022-11-09T11:32:35.887Z,39.15
2022-11-09T11:33:35.883Z,38.99
2022-11-09T11:34:58.544Z,38.99
2022-11-09T11:35:36.880Z,39.10
2022-11-09T11:36:35.848Z,38.99
2022-11-09T11:37:35.822Z,38.99
2022-11-09T11:38:35.821Z,39.04
2022-11-09T11:39:35.807Z,39.04
2022-11-09T11:40:35.813Z,39.10
2022-11-09T11:41:35.777Z,39.10
2022-11-09T11:42:35.761Z,38.99
2022-11-09T11:43:35.762Z,39.04
2022-11-09T11:44:35.732Z,38.99
2022-11-09T11:45:42.932Z,39.04
2022-11-09T11:46:36.736Z,38.93
2022-11-09T11:47:35.693Z,38.99
2022-11-09T11:48:35.691Z,38.99
2022-11-09T11:49:35.669Z,39.10
2022-11-09T11:50:35.663Z,39.04
2022-11-09T11:51:35.658Z,39.10
2022-11-09T11:52:35.661Z,39.04
2022-11-09T11:53:38.286Z,39.04
2022-11-09T11:54:36.642Z,40.18
2022-11-09T11:55:35.599Z,39.10
2022-11-09T11:56:35.625Z,39.04
2022-11-09T11:57:35.576Z,39.10
2022-11-09T11:58:35.568Z,39.04
2022-11-09T11:59:35.549Z,39.04
2022-11-09T12:00:35.532Z,38.99
2022-11-09T12:01:35.521Z,39.10
2022-11-09T12:02:35.578Z,38.99
2022-11-09T12:03:35.497Z,39.04
2022-11-09T12:04:35.495Z,38.99
2022-11-09T12:05:35.471Z,38.99
2022-11-09T12:06:36.068Z,39.10
2022-11-09T12:07:35.450Z,39.04
2022-11-09T12:08:35.439Z,39.10
2022-11-09T12:09:35.423Z,39.04
2022-11-09T12:10:35.415Z,38.99
2022-11-09T12:11:35.404Z,39.04
2022-11-09T12:12:35.427Z,39.04
2022-11-09T12:13:35.378Z,39.10
2022-11-09T12:14:35.361Z,38.99
2022-11-09T12:15:35.349Z,39.10
2022-11-09T12:16:35.365Z,39.04
2022-11-09T12:17:35.321Z,39.15
2022-11-09T12:18:35.307Z,39.10
2022-11-09T12:19:36.070Z,40.28
2022-11-09T12:20:35.282Z,38.99
2022-11-09T12:21:35.276Z,39.10
2022-11-09T12:22:35.260Z,39.15
2022-11-09T12:23:35.244Z,39.10
2022-11-09T12:24:35.229Z,40.28
2022-11-09T12:25:35.217Z,39.04
2022-11-09T12:26:35.213Z,38.99
2022-11-09T12:27:35.192Z,39.10
2022-11-09T12:28:35.205Z,39.04
2022-11-09T12:29:35.166Z,40.28
2022-11-09T12:30:35.158Z,39.15
2022-11-09T12:31:35.148Z,39.10
2022-11-09T12:32:35.121Z,39.10
2022-11-09T12:33:39.369Z,40.28
2022-11-09T12:34:36.137Z,40.12
2022-11-09T12:35:35.110Z,40.28
2022-11-09T12:36:35.112Z,39.15
2022-11-09T12:37:35.061Z,39.10
2022-11-09T12:38:35.053Z,39.15
2022-11-09T12:39:35.041Z,40.28
2022-11-09T12:40:35.037Z,40.18
2022-11-09T12:41:35.018Z,40.23
2022-11-09T12:42:35.007Z,39.04
2022-11-09T12:43:34.991Z,40.18
2022-11-09T12:44:35.001Z,40.23
2022-11-09T12:45:34.976Z,40.18
2022-11-09T12:46:34.950Z,39.15
2022-11-09T12:47:34.949Z,39.04
2022-11-09T12:48:34.933Z,40.28
2022-11-09T12:49:34.922Z,40.28
2022-11-09T12:50:34.909Z,40.28
2022-11-09T12:51:34.886Z,40.18
2022-11-09T12:52:34.889Z,39.04